Latest Weather Observations for Strathalbyn

IDS60801

Issued at 2:01 pm CDT Friday 12 February 2016 (issued every 30 minutes, with the page automatically refreshed every 10 minutes)

About weather observations | Map of weather stations | Latest weather observations for SA | Other Formats
Station Details ID: 024580 Name: STRATHALBYN RACECOURSE Lat: -35.28 Lon: 138.89 Height: 58.0 m
Data from the previous 72 hours. | See also: Recent months at Strathalbyn
Date/Time
CDT
Temp
°C
App
Temp
°C
Dew
Point
Rel
Hum
%
Delta-T
°C
Wind Press
QNH
hPa
Press
MSL
hPa
Rain
since 9 am
mm
Dir
 
Spd
km/h
Gust
km/h
Spd
kts
Gust
kts
12/02:00pm 29.4 26.1 12.8 36 9.8 SSE 22 30 12 16 1012.4 - 0.2
12/01:30pm 30.3 29.3 12.2 33 10.6 E 9 19 5 10 1012.8 - 0.2
12/01:00pm 29.1 27.7 12.1 35 9.9 ESE 11 17 6 9 1013.2 - 0.2
12/12:30pm 27.7 26.4 12.5 39 8.9 ESE 11 17 6 9 1013.7 - 0.2
12/12:00pm 26.6 25.9 13.3 43 7.8 ESE 9 15 5 8 1014.1 1013.9 0.2
12/11:30am 25.5 25.7 14.6 51 6.5 ESE 7 11 4 6 1014.5 - 0.2
12/11:00am 23.8 23.9 13.9 54 5.8 SW 6 9 3 5 1014.9 - 0.2
12/10:30am 22.4 23.0 14.3 60 4.8 SSW 4 7 2 4 1015.1 - 0.0
12/10:00am 20.6 20.4 13.1 62 4.3 SSW 6 11 3 6 1015.5 - 0.0
12/09:30am 19.8 19.8 14.2 70 3.2 SSW 7 9 4 5 1015.8 - 0.0
12/09:00am 18.6 18.6 13.7 73 2.8 WSW 6 6 3 3 1016.0 1015.9 0.0
12/08:30am 17.4 18.6 13.9 80 2.0 CALM 0 0 0 0 1016.1 - 0.0
12/08:00am 16.4 16.7 14.4 88 1.1 WSW 6 7 3 4 1016.1 - 0.0
12/07:30am 15.3 15.4 14.0 92 0.7 WSW 6 7 3 4 1015.9 - 0.0
12/07:00am 14.3 13.5 12.9 91 0.8 WSW 9 11 5 6 1015.8 - 0.0
12/06:30am 14.4 13.6 13.0 91 0.8 WSW 9 11 5 6 1015.6 - 0.0
12/06:00am 14.7 14.0 13.2 91 0.8 WSW 9 11 5 6 1015.5 1015.4 0.0
12/05:30am 14.6 13.8 13.0 90 0.9 WSW 9 11 5 6 1015.4 - 0.0
12/05:00am 14.6 13.8 13.0 90 0.9 WSW 9 11 5 6 1015.2 - 0.0
12/04:30am 15.1 14.8 13.3 89 1.0 WSW 7 11 4 6 1015.1 - 0.0
12/04:00am 15.3 14.3 13.5 89 1.0 SW 11 15 6 8 1015.0 - 0.0
12/03:30am 15.2 14.2 13.4 89 1.0 SW 11 13 6 7 1015.2 - 0.0
12/03:00am 15.0 13.9 13.2 89 1.0 WSW 11 11 6 6 1015.4 1015.3 0.0
12/02:30am 15.1 14.0 13.1 88 1.1 WSW 11 13 6 7 1015.6 - 0.0
12/02:00am 15.4 14.7 13.2 87 1.2 WSW 9 13 5 7 1015.7 - 0.0
12/01:30am 15.8 14.9 13.6 87 1.2 WSW 11 15 6 8 1016.1 - 0.0
12/01:00am 15.8 14.9 13.6 87 1.2 WSW 11 17 6 9 1016.5 - 0.0
12/12:30am 15.6 14.7 13.6 88 1.1 WSW 11 13 6 7 1016.7 - 0.0
12/12:00am 15.8 14.9 13.6 87 1.2 SW 11 13 6 7 1017.1 1017.0 0.0
 
Date/Time
CDT
Temp
°C
App
Temp
°C
Dew
Point
Rel
Hum
%
Delta-T
°C
Wind Press
QNH
hPa
Press
MSL
hPa
Rain
since 9 am
mm
Dir
 
Spd
km/h
Gust
km/h
Spd
kts
Gust
kts
11/11:30pm 16.0 15.1 13.8 87 1.2 SW 11 15 6 8 1017.3 - 0.0
11/11:00pm 16.3 15.4 13.8 85 1.4 SW 11 15 6 8 1017.5 - 0.0
11/10:30pm 16.4 14.8 13.9 85 1.4 SSW 15 19 8 10 1017.7 - 0.0
11/10:00pm 16.6 15.0 13.9 84 1.5 SSW 15 20 8 11 1017.6 - 0.0
11/09:30pm 16.9 15.3 14.0 83 1.7 SSW 15 19 8 10 1017.5 - 0.0
11/09:00pm 17.1 14.9 13.4 79 2.1 SSW 17 20 9 11 1017.2 1017.1 0.0
11/08:30pm 17.8 15.1 13.5 76 2.4 S 20 28 11 15 1016.9 - 0.0
11/08:00pm 18.5 14.9 13.1 71 3.1 S 24 32 13 17 1016.7 - 0.0
11/07:30pm 19.6 15.5 12.8 65 3.8 S 26 33 14 18 1016.4 - 0.0
11/07:00pm 20.2 16.3 13.4 65 3.9 S 26 33 14 18 1016.2 - 0.0
11/06:30pm 20.8 16.9 13.3 62 4.3 S 26 35 14 19 1015.8 - 0.0
11/06:00pm 21.9 17.6 13.3 58 5.0 S 28 35 15 19 1015.6 1015.5 0.0
11/05:30pm 22.2 17.8 13.0 56 5.3 SSW 28 35 15 19 1015.3 - 0.0
11/05:00pm 23.6 19.9 12.6 50 6.3 S 24 32 13 17 1015.1 - 0.0
11/04:30pm 22.7 18.5 12.3 52 5.9 S 26 33 14 18 1015.2 - 0.0
11/04:00pm 23.0 18.5 12.6 52 6.0 S 28 35 15 19 1015.3 - 0.0
11/03:30pm 23.2 19.2 11.9 49 6.4 S 24 33 13 18 1015.5 - 0.0
11/03:00pm 23.7 19.7 11.7 47 6.8 S 24 33 13 18 1015.7 1015.6 0.0
11/02:30pm 24.6 20.9 11.5 44 7.4 S 22 33 12 18 1015.8 - 0.0
11/02:00pm 23.8 19.8 10.5 43 7.4 S 22 33 12 18 1015.8 - 0.0
11/01:30pm 23.8 19.6 11.2 45 7.1 S 24 33 13 18 1016.0 - 0.0
11/01:00pm 23.5 20.0 12.2 49 6.4 SSW 22 32 12 17 1016.1 - 0.0
11/12:30pm 24.0 20.8 11.3 45 7.1 S 19 28 10 15 1016.5 - 0.0
11/12:00pm 22.7 19.6 11.7 49 6.2 S 19 28 10 15 1016.7 1016.6 0.0
11/11:30am 21.6 19.3 11.6 53 5.6 S 15 20 8 11 1016.7 - 0.0
11/11:00am 20.8 18.3 12.2 58 4.8 SSE 17 24 9 13 1016.9 - 0.0
11/10:30am 20.4 18.4 12.6 61 4.4 SSE 15 22 8 12 1017.2 - 0.0
11/10:00am 19.9 17.5 12.7 63 4.1 SSE 17 24 9 13 1017.6 - 0.0
11/09:30am 19.4 16.8 13.1 67 3.6 SSE 19 24 10 13 1018.0 - 0.0
11/09:00am 18.7 16.5 13.3 71 3.1 SSE 17 26 9 14 1018.1 1018.0 0.0
11/08:30am 17.6 15.1 13.5 77 2.3 S 19 26 10 14 1018.2 - 0.0
11/08:00am 16.9 15.3 13.8 82 1.8 SSW 15 20 8 11 1017.9 - 0.0
11/07:30am 15.7 14.3 13.4 86 1.3 SW 13 17 7 9 1017.5 - 0.0
11/07:00am 14.9 13.3 12.8 87 1.2 SSW 13 17 7 9 1017.2 - 0.0
11/06:30am 14.9 13.3 12.9 88 1.1 SSW 13 17 7 9 1017.1 - 0.0
11/06:00am 14.8 13.2 12.7 87 1.2 SSW 13 15 7 8 1016.7 1016.6 0.0
11/05:30am 15.7 13.9 13.4 86 1.3 SSW 15 17 8 9 1016.5 - 0.0
11/05:00am 15.6 13.8 13.3 86 1.3 SSW 15 17 8 9 1016.2 - 0.0
11/04:30am 16.1 14.4 13.6 85 1.4 SSW 15 20 8 11 1016.1 - 0.0
11/04:00am 16.3 15.1 14.0 86 1.3 SSW 13 19 7 10 1016.0 - 0.0
11/03:30am 16.1 14.9 13.9 87 1.2 SSW 13 17 7 9 1015.8 - 0.0
11/03:00am 15.5 14.1 13.5 88 1.1 SSW 13 17 7 9 1015.8 1015.7 0.0
11/02:30am 15.1 13.6 13.1 88 1.1 SW 13 17 7 9 1015.9 - 0.0
11/02:00am 15.1 13.6 13.0 87 1.2 SW 13 17 7 9 1016.0 - 0.0
11/01:30am 15.3 13.8 13.1 87 1.2 SW 13 15 7 8 1016.3 - 0.0
11/01:00am 15.3 13.8 13.1 87 1.2 SW 13 15 7 8 1016.6 - 0.0
11/12:30am 15.5 14.5 13.3 87 1.2 SW 11 15 6 8 1016.7 - 0.0
11/12:00am 15.5 14.5 13.3 87 1.2 SW 11 15 6 8 1016.6 1016.5 0.0
 
Date/Time
CDT
Temp
°C
App
Temp
°C
Dew
Point
Rel
Hum
%
Delta-T
°C
Wind Press
QNH
hPa
Press
MSL
hPa
Rain
since 9 am
mm
Dir
 
Spd
km/h
Gust
km/h
Spd
kts
Gust
kts
10/11:30pm 15.6 14.6 13.4 87 1.2 SW 11 13 6 7 1016.5 - 0.0
10/11:00pm 15.8 14.9 13.6 87 1.2 SW 11 13 6 7 1016.5 - 0.0
10/10:30pm 16.1 15.2 13.8 86 1.3 SW 11 15 6 8 1016.5 - 0.0
10/10:00pm 16.2 15.3 13.7 85 1.4 SW 11 13 6 7 1016.3 - 0.0
10/09:30pm 16.4 14.7 13.7 84 1.5 SSW 15 17 8 9 1016.2 - 0.0
10/09:00pm 16.8 14.7 13.7 82 1.8 SSW 17 20 9 11 1016.1 1016.0 0.0
10/08:30pm 17.3 14.7 13.8 80 2.0 SSW 20 26 11 14 1016.0 - 0.0
10/08:00pm 17.9 14.9 13.6 76 2.4 S 22 26 12 14 1015.8 - 0.0
10/07:30pm 19.0 15.5 13.4 70 3.2 S 24 32 13 17 1015.5 - 0.0
10/07:00pm 19.5 15.3 13.4 68 3.5 S 28 33 15 18 1015.1 - 0.0
10/06:30pm 20.1 16.2 13.3 65 3.9 S 26 33 14 18 1015.0 - 0.0
10/06:00pm 21.8 18.2 13.2 58 4.9 S 24 33 13 18 1014.7 1014.6 0.0
10/05:30pm 21.6 16.6 12.2 55 5.3 S 30 39 16 21 1014.5 - 0.0
10/05:00pm 21.3 16.3 12.2 56 5.1 S 30 37 16 20 1014.5 - 0.0
10/04:30pm 22.4 17.8 12.4 53 5.7 SSW 28 33 15 18 1014.4 - 0.0
10/04:00pm 23.1 18.5 12.4 51 6.1 S 28 35 15 19 1014.6 - 0.0
10/03:30pm 23.3 19.4 12.0 49 6.4 S 24 33 13 18 1014.6 - 0.0
10/03:00pm 23.4 19.3 12.7 51 6.1 SSW 26 35 14 19 1014.8 1014.7 0.0
10/02:30pm 23.8 19.1 10.5 43 7.4 S 26 32 14 17 1014.8 - 0.0
10/02:00pm 24.7 19.9 11.6 44 7.4 S 28 39 15 21 1014.8 - 0.0
10/01:30pm 24.0 20.6 12.6 49 6.6 S 22 32 12 17 1014.9 - 0.0
10/01:00pm 25.7 23.6 12.5 44 7.6 S 15 20 8 11 1015.1 - 0.0
10/12:30pm 24.5 22.5 12.8 48 6.8 S 15 24 8 13 1015.5 - 0.0
10/12:00pm 24.1 21.6 12.4 48 6.7 S 17 26 9 14 1015.8 1015.7 0.0
10/11:30am 23.5 21.3 12.2 49 6.4 S 15 24 8 13 1016.2 - 0.0
10/11:00am 21.8 20.8 13.4 59 4.8 S 11 20 6 11 1016.4 - 0.0
10/10:30am 21.0 20.5 14.9 68 3.6 SSW 11 17 6 9 1016.7 - 0.0
10/10:00am 19.4 17.8 13.8 70 3.2 SW 15 24 8 13 1016.8 - 0.0
10/09:30am 18.6 17.1 14.1 75 2.6 SSW 15 20 8 11 1016.8 - 0.0
10/09:00am 17.9 16.3 14.0 78 2.2 S 15 19 8 10 1016.7 1016.6 0.0
10/08:30am 17.4 16.7 14.3 82 1.8 S 11 15 6 8 1016.7 - 0.0
10/08:00am 16.5 15.2 13.8 84 1.5 SSW 13 17 7 9 1016.6 - 0.0
10/07:30am 16.1 14.8 13.8 86 1.3 SSW 13 17 7 9 1016.2 - 0.0
10/07:00am 15.9 15.4 13.7 87 1.2 SW 9 15 5 8 1015.8 - 0.0
10/06:30am 15.9 14.6 13.7 87 1.2 SSW 13 20 7 11 1015.6 - 0.0
10/06:00am 16.0 15.6 14.0 88 1.1 SW 9 15 5 8 1015.3 1015.2 0.0
10/05:30am 15.8 15.4 14.0 89 1.0 SW 9 15 5 8 1015.2 - 0.0
10/05:00am 15.5 14.7 13.9 90 0.9 SW 11 13 6 7 1015.2 - 0.0
10/04:30am 14.7 14.3 12.9 89 1.0 WSW 7 11 4 6 1015.1 - 0.0
10/04:00am 15.0 14.3 13.2 89 1.0 WSW 9 13 5 7 1015.3 - 0.0
10/03:30am 15.4 14.1 13.6 89 1.0 WSW 13 17 7 9 1015.5 - 0.0
10/03:00am 15.4 14.5 13.6 89 1.0 WSW 11 15 6 8 1015.6 1015.5 0.0
10/02:30am 15.3 14.7 13.5 89 1.0 WSW 9 13 5 7 1015.6 - 0.0
10/02:00am 15.1 14.0 13.1 88 1.1 WSW 11 13 6 7 1015.9 - 0.0
10/01:30am 15.1 14.4 13.1 88 1.1 WSW 9 13 5 7 1016.2 - 0.0
10/01:00am 15.1 14.4 13.1 88 1.1 WSW 9 11 5 6 1016.5 - 0.0
10/12:30am 15.1 14.3 13.0 87 1.2 WSW 9 11 5 6 1016.6 - 0.0
10/12:00am 15.4 14.7 13.2 87 1.2 WSW 9 11 5 6 1017.0 1016.9 0.0
 
Date/Time
CDT
Temp
°C
App
Temp
°C
Dew
Point
Rel
Hum
%
Delta-T
°C
Wind Press
QNH
hPa
Press
MSL
hPa
Rain
since 9 am
mm
Dir
 
Spd
km/h
Gust
km/h
Spd
kts
Gust
kts
09/11:30pm 15.9 15.0 13.6 86 1.3 SW 11 13 6 7 1017.3 - 0.0
09/11:00pm 16.1 15.2 13.6 85 1.4 SW 11 15 6 8 1017.5 - 0.0
09/10:30pm 16.3 15.0 13.8 85 1.4 SW 13 17 7 9 1017.5 - 0.0
09/10:00pm 16.4 15.4 13.5 83 1.6 SW 11 13 6 7 1017.5 - 0.0
09/09:30pm 16.7 16.1 13.4 81 1.9 SW 9 13 5 7 1017.3 - 0.0
09/09:00pm 17.3 16.2 13.2 77 2.3 SW 11 17 6 9 1017.2 1017.1 0.0
09/08:30pm 18.3 16.2 12.5 69 3.2 SSW 15 20 8 11 1017.1 - 0.0
09/08:00pm 19.4 16.9 12.2 63 4.0 SSW 17 20 9 11 1017.0 - 0.0
09/07:00pm 21.1 18.1 12.5 58 4.9 SSW 20 26 11 14 1016.9 - 0.0
09/06:30pm 22.0 18.8 13.1 57 5.1 SSW 22 28 12 15 1017.0 - 0.0
09/06:00pm 22.2 18.7 13.5 57 5.0 SSW 24 32 13 17 1016.8 1016.7 0.0
09/05:30pm 23.0 19.6 13.8 56 5.4 SSW 24 33 13 18 1016.9 - 0.0
09/05:00pm 23.8 19.9 13.4 52 6.1 SSW 26 35 14 19 1017.0 - 0.0
09/04:30pm 25.5 21.5 13.0 46 7.3 S 26 33 14 18 1017.0 - 0.0
09/04:00pm 26.2 22.7 13.3 45 7.6 S 24 30 13 16 1017.0 - 0.0
09/03:30pm 26.6 22.6 14.0 46 7.5 S 28 35 15 19 1017.3 - 0.0
09/03:00pm 26.5 22.4 13.9 45 7.5 S 28 39 15 21 1017.5 1017.4 0.0
09/02:30pm 28.1 25.4 11.6 36 9.5 SSE 17 26 9 14 1017.6 - 0.0

Other Formats:

Comma delimited format used in spreadsheet applications
http://www.bom.gov.au/fwo/IDS60801/IDS60801.94814.axf

JavaScript Object Notation format (JSON) in row-major order
http://www.bom.gov.au/fwo/IDS60801/IDS60801.94814.json